createdAt,value
2022-08-22T00:00:52.418Z,101247.69
2022-08-22T00:02:59.185Z,101260.53
2022-08-22T00:03:02.382Z,101234.91
2022-08-22T00:03:11.173Z,101243.56
2022-08-22T00:03:42.988Z,101249.78
2022-08-22T00:06:20.650Z,101251.59
2022-08-22T00:09:03.278Z,101243.44
2022-08-22T00:11:44.706Z,101239.72
2022-08-22T00:14:18.988Z,101246.94
2022-08-22T00:16:57.618Z,101239.91
2022-08-22T00:19:35.351Z,101245.19
2022-08-22T00:22:11.371Z,101243.41
2022-08-22T00:24:54.666Z,101243.41
2022-08-22T00:27:29.132Z,101244.34
2022-08-22T00:30:05.095Z,101249.69
2022-08-22T00:32:44.316Z,101252.47
2022-08-22T00:35:22.083Z,101252.50
2022-08-22T00:38:04.243Z,101248.84
2022-08-22T00:40:54.883Z,101242.69
2022-08-22T00:43:58.883Z,101241.81
2022-08-22T00:47:02.373Z,101238.16
2022-08-22T00:50:24.543Z,101227.50
2022-08-22T00:53:27.473Z,101242.56
2022-08-22T00:56:16.961Z,101227.38
2022-08-22T00:59:23.190Z,101237.16
2022-08-22T01:02:06.575Z,101242.47
2022-08-22T01:05:03.126Z,101245.19
2022-08-22T01:07:55.280Z,101247.00
2022-08-22T01:10:40.086Z,101248.56
2022-08-22T01:13:39.336Z,101251.00
2022-08-22T01:16:27.794Z,101251.97
2022-08-22T01:19:37.432Z,101251.31
2022-08-22T01:22:52.438Z,101250.56
2022-08-22T01:26:03.713Z,101252.19
2022-08-22T01:29:04.562Z,101251.38
2022-08-22T01:32:08.393Z,101241.66
2022-08-22T01:35:04.235Z,101243.56
2022-08-22T01:38:08.774Z,101248.94
2022-08-22T01:41:02.434Z,101256.13
2022-08-22T01:44:01.276Z,101255.03
2022-08-22T01:46:50.224Z,101255.97
2022-08-22T01:49:28.284Z,101260.34
2022-08-22T01:52:07.614Z,101256.91
2022-08-22T01:54:46.341Z,101254.28
2022-08-22T01:57:17.543Z,101256.97
2022-08-22T01:59:50.922Z,101264.16
2022-08-22T02:02:48.233Z,101263.22
2022-08-22T02:05:28.356Z,101264.09
2022-08-22T02:08:05.225Z,101254.28
2022-08-22T02:10:54.136Z,101262.47
2022-08-22T02:13:54.535Z,101256.38
2022-08-22T02:16:34.553Z,101261.66
2022-08-22T02:19:23.133Z,101257.31
2022-08-22T02:22:00.134Z,101257.31
2022-08-22T02:24:46.454Z,101258.19
2022-08-22T02:27:27.170Z,101260.97
2022-08-22T02:30:07.798Z,101274.41
2022-08-22T02:32:47.545Z,101268.25
2022-08-22T02:35:27.884Z,101276.22
2022-08-22T02:38:09.594Z,101271.63
2022-08-22T02:40:48.367Z,101265.34
2022-08-22T02:43:25.135Z,101271.56
2022-08-22T02:45:59.955Z,101267.97
2022-08-22T02:48:40.499Z,101265.41
2022-08-22T02:51:19.115Z,101260.06
2022-08-22T02:53:58.285Z,101261.09
2022-08-22T02:56:36.047Z,101264.78
2022-08-22T02:59:17.618Z,101271.03
2022-08-22T03:01:49.135Z,101269.28
2022-08-22T03:04:48.675Z,101264.13
2022-08-22T03:07:29.247Z,101259.72
2022-08-22T03:10:12.667Z,101263.09
2022-08-22T03:12:57.534Z,101267.56
2022-08-22T03:15:51.145Z,101258.84
2022-08-22T03:18:29.293Z,101255.31
2022-08-22T03:21:23.116Z,101266.88
2022-08-22T03:23:58.095Z,101262.31
2022-08-22T03:26:31.984Z,101260.56
2022-08-22T03:29:10.703Z,101265.91
2022-08-22T03:32:01.124Z,101264.06
2022-08-22T03:34:31.595Z,101271.25
2022-08-22T03:37:17.803Z,101269.56
2022-08-22T03:39:59.263Z,101268.78
2022-08-22T03:43:00.563Z,101268.84
2022-08-22T03:46:09.283Z,101265.22
2022-08-22T03:49:31.114Z,101270.66
2022-08-22T03:52:10.007Z,101271.53
2022-08-22T03:55:05.575Z,101272.41
2022-08-22T03:58:17.160Z,101270.63
2022-08-22T04:01:16.388Z,101272.28
2022-08-22T04:04:24.996Z,101275.75
2022-08-22T04:07:33.981Z,101272.09
2022-08-22T04:10:40.403Z,101271.22
2022-08-22T04:13:50.709Z,101268.59
2022-08-22T04:17:02.750Z,101273.03
2022-08-22T04:19:56.433Z,101278.47
2022-08-22T04:22:48.549Z,101283.78
2022-08-22T04:25:24.265Z,101285.47
2022-08-22T04:28:04.177Z,101288.09
2022-08-22T04:30:39.999Z,101280.13
2022-08-22T04:33:19.730Z,101279.25
2022-08-22T04:36:02.272Z,101288.00
2022-08-22T04:38:41.271Z,101286.97
2022-08-22T04:41:15.432Z,101288.72
2022-08-22T04:43:53.459Z,101292.25
2022-08-22T04:46:33.583Z,101293.81
2022-08-22T04:49:14.970Z,101291.91
2022-08-22T04:51:53.880Z,101290.94
2022-08-22T04:54:47.438Z,101295.03
2022-08-22T04:57:28.170Z,101294.00
2022-08-22T05:00:02.099Z,101298.38
2022-08-22T05:02:32.171Z,101299.97
2022-08-22T05:05:13.439Z,101297.00
2022-08-22T05:07:47.548Z,101300.16
2022-08-22T05:10:22.928Z,101305.50
2022-08-22T05:12:57.150Z,101301.72
2022-08-22T05:15:32.540Z,101308.06
2022-08-22T05:18:08.670Z,101303.47
2022-08-22T05:20:42.049Z,101311.69
2022-08-22T05:23:19.798Z,101300.72
2022-08-22T05:25:54.880Z,101304.88
2022-08-22T05:28:35.724Z,101301.66
2022-08-22T05:31:09.721Z,101304.34
2022-08-22T05:33:45.221Z,101307.78
2022-08-22T05:36:21.798Z,101305.78
2022-08-22T05:38:57.681Z,101310.09
2022-08-22T05:41:32.178Z,101313.47
2022-08-22T05:44:03.598Z,101310.34
2022-08-22T05:46:41.370Z,101320.06
2022-08-22T05:49:19.501Z,101313.50
2022-08-22T05:52:06.651Z,101320.34
2022-08-22T05:54:50.488Z,101322.66
2022-08-22T05:57:29.901Z,101329.56
2022-08-22T06:00:07.892Z,101333.78
2022-08-22T06:02:56.842Z,101328.88
2022-08-22T06:05:29.919Z,101317.53
2022-08-22T06:08:06.034Z,101328.28
2022-08-22T06:10:44.574Z,101320.19
2022-08-22T06:13:25.605Z,101321.00
2022-08-22T06:16:04.767Z,101323.09
2022-08-22T06:18:37.295Z,101324.22
2022-08-22T06:21:11.596Z,101330.09
2022-08-22T06:23:47.147Z,101317.84
2022-08-22T06:26:21.406Z,101329.00
2022-08-22T06:28:55.897Z,101320.16
2022-08-22T06:31:31.294Z,101323.75
2022-08-22T06:34:07.084Z,101337.84
2022-08-22T06:36:40.163Z,101326.03
2022-08-22T06:39:18.884Z,101322.56
2022-08-22T06:41:57.365Z,101329.81
2022-08-22T06:44:32.114Z,101330.84
2022-08-22T06:47:05.356Z,101334.00
2022-08-22T06:49:39.246Z,101322.25
2022-08-22T06:52:13.138Z,101339.72
2022-08-22T06:54:47.959Z,101322.78
2022-08-22T06:57:32.071Z,101330.38
2022-08-22T07:00:07.901Z,101344.50
2022-08-22T07:02:43.190Z,101334.75
2022-08-22T07:05:20.379Z,101348.78
2022-08-22T07:07:51.589Z,101349.31
2022-08-22T07:10:24.801Z,101354.56
2022-08-22T07:12:59.112Z,101360.47
2022-08-22T07:15:36.851Z,101349.66
2022-08-22T07:18:11.550Z,101353.59
2022-08-22T07:20:46.775Z,101354.97
2022-08-22T07:23:27.110Z,101348.19
2022-08-22T07:26:04.617Z,101346.28
2022-08-22T07:28:57.899Z,101344.47
2022-08-22T07:31:39.541Z,101344.00
2022-08-22T07:34:29.654Z,101333.78
2022-08-22T07:37:04.103Z,101342.47
2022-08-22T07:39:40.251Z,101347.09
2022-08-22T07:42:17.164Z,101345.72
2022-08-22T07:45:04.725Z,101341.41
2022-08-22T07:47:52.535Z,101344.72
2022-08-22T07:50:28.277Z,101345.88
2022-08-22T07:53:08.260Z,101342.28
2022-08-22T07:55:49.273Z,101352.22
2022-08-22T07:58:23.397Z,101350.13
2022-08-22T08:00:56.120Z,101347.97
2022-08-22T08:03:30.307Z,101352.81
2022-08-22T08:06:03.459Z,101352.31
2022-08-22T08:08:36.921Z,101355.50
2022-08-22T08:11:11.029Z,101357.72
2022-08-22T08:13:45.499Z,101352.50
2022-08-22T08:16:23.750Z,101354.72
2022-08-22T08:18:57.088Z,101359.03
2022-08-22T08:21:35.638Z,101360.25
2022-08-22T08:24:09.770Z,101355.00
2022-08-22T08:27:04.458Z,101359.19
2022-08-22T08:29:34.390Z,101360.06
2022-08-22T08:32:09.898Z,101369.13
2022-08-22T08:34:41.130Z,101373.16
2022-08-22T08:37:20.649Z,101368.78
2022-08-22T08:39:53.427Z,101367.19
2022-08-22T08:43:29.919Z,101359.50
2022-08-22T08:46:36.607Z,101363.41
2022-08-22T08:49:33.737Z,101361.78
2022-08-22T08:52:31.777Z,101365.69
2022-08-22T08:55:21.890Z,101367.75
2022-08-22T08:58:11.182Z,101360.13
2022-08-22T09:00:56.981Z,101367.66
2022-08-22T09:04:14.984Z,101354.13
2022-08-22T09:07:19.079Z,101348.91
2022-08-22T09:10:10.245Z,101354.47
2022-08-22T09:13:00.553Z,101355.78
2022-08-22T09:16:09.230Z,101342.75
2022-08-22T09:19:14.519Z,101349.06
2022-08-22T09:22:19.951Z,101350.94
2022-08-22T09:25:17.428Z,101353.44
2022-08-22T09:27:53.973Z,101348.91
2022-08-22T09:33:24.593Z,101356.75
2022-08-22T09:36:03.369Z,101351.78
2022-08-22T09:38:56.728Z,101358.94
2022-08-22T09:40:16.203Z,101350.31
2022-08-22T09:41:39.298Z,101364.66
2022-08-22T09:44:19.701Z,101366.81
2022-08-22T09:47:06.149Z,101359.47
2022-08-22T09:49:58.361Z,101366.31
2022-08-22T09:52:48.878Z,101362.03
2022-08-22T09:55:44.318Z,101364.75
2022-08-22T09:58:23.870Z,101359.78
2022-08-22T10:01:23.901Z,101365.22
2022-08-22T10:04:38.258Z,101360.00
2022-08-22T10:07:31.027Z,101372.84
2022-08-22T10:10:15.201Z,101367.88
2022-08-22T10:12:56.620Z,101365.34
2022-08-22T10:15:37.749Z,101367.19
2022-08-22T10:18:24.931Z,101376.00
2022-08-22T10:21:13.271Z,101376.41
2022-08-22T10:23:53.367Z,101375.84
2022-08-22T10:26:38.509Z,101375.00
2022-08-22T10:29:34.292Z,101378.56
2022-08-22T10:32:16.714Z,101371.13
2022-08-22T10:34:51.192Z,101376.47
2022-08-22T10:37:33.904Z,101378.03
2022-08-22T10:40:10.008Z,101369.53
2022-08-22T10:42:48.078Z,101382.44
2022-08-22T10:45:36.159Z,101390.78
2022-08-22T10:48:40.114Z,101359.59
2022-08-22T10:51:21.662Z,101377.00
2022-08-22T10:54:26.832Z,101381.03
2022-08-22T10:57:07.706Z,101381.09
2022-08-22T10:59:45.582Z,101380.59
2022-08-22T11:02:53.160Z,101381.91
2022-08-22T11:05:43.034Z,101378.56
2022-08-22T11:08:45.961Z,101381.13
2022-08-22T11:11:42.669Z,101387.75
2022-08-22T11:14:38.857Z,101388.19
2022-08-22T11:17:34.579Z,101380.47
2022-08-22T11:20:29.938Z,101380.16
2022-08-22T11:23:19.117Z,101382.88
2022-08-22T11:25:58.703Z,101383.69
2022-08-22T11:29:13.189Z,101386.06
2022-08-22T11:31:54.859Z,101389.06
2022-08-22T11:34:46.250Z,101394.81
2022-08-22T11:37:43.499Z,101391.41
2022-08-22T11:40:28.672Z,101390.06
2022-08-22T11:43:18.185Z,101392.56
2022-08-22T11:45:51.319Z,101390.47
2022-08-22T11:48:28.915Z,101396.84
2022-08-22T11:51:13.656Z,101398.59
2022-08-22T11:53:55.739Z,101397.44
2022-08-22T11:56:33.269Z,101395.69
2022-08-22T11:59:09.170Z,101404.53
2022-08-22T12:01:44.333Z,101405.25
2022-08-22T12:04:21.731Z,101405.31
2022-08-22T12:07:02.513Z,101399.22
2022-08-22T12:09:47.756Z,101398.16
2022-08-22T12:12:29.512Z,101392.03
2022-08-22T12:15:08.875Z,101391.69
2022-08-22T12:18:22.851Z,101401.75
2022-08-22T12:21:52.241Z,101393.38
2022-08-22T12:24:49.820Z,101398.47
2022-08-22T12:27:38.890Z,101392.88
2022-08-22T12:30:22.610Z,101397.53
2022-08-22T12:33:22.920Z,101385.75
2022-08-22T12:36:21.752Z,101394.28
2022-08-22T12:39:19.592Z,101393.72
2022-08-22T12:42:12.441Z,101398.06
2022-08-22T12:44:56.270Z,101395.22
2022-08-22T12:47:42.266Z,101391.97
2022-08-22T12:50:31.561Z,101385.75
2022-08-22T12:53:34.777Z,101386.56
2022-08-22T12:56:33.042Z,101382.41
2022-08-22T12:59:24.015Z,101382.44
2022-08-22T13:02:01.049Z,101385.03
2022-08-22T13:04:35.092Z,101382.88
2022-08-22T13:07:24.830Z,101381.47
2022-08-22T13:09:59.292Z,101389.63
2022-08-22T13:12:38.073Z,101387.66
2022-08-22T13:15:29.902Z,101385.16
2022-08-22T13:18:19.178Z,101386.03
2022-08-22T13:20:56.890Z,101395.56
2022-08-22T13:23:31.971Z,101384.53
2022-08-22T13:26:16.397Z,101389.66
2022-08-22T13:32:02.279Z,101397.50
2022-08-22T13:34:43.535Z,101406.53
2022-08-22T13:37:20.286Z,101407.09
2022-08-22T13:40:01.227Z,101400.38
2022-08-22T13:42:35.232Z,101404.78
2022-08-22T13:45:17.412Z,101406.75
2022-08-22T13:47:57.251Z,101411.16
2022-08-22T13:50:35.864Z,101411.91
2022-08-22T13:53:32.356Z,101411.13
2022-08-22T13:56:15.327Z,101408.13
2022-08-22T13:58:49.926Z,101410.00
2022-08-22T14:01:46.014Z,101408.34
2022-08-22T14:04:32.175Z,101415.88
2022-08-22T14:07:25.642Z,101407.69
2022-08-22T14:10:02.608Z,101407.59
2022-08-22T14:12:51.100Z,101419.56
2022-08-22T14:15:26.780Z,101407.91
2022-08-22T14:18:11.225Z,101419.69
2022-08-22T14:20:45.580Z,101406.28
2022-08-22T14:23:27.091Z,101416.50
2022-08-22T14:26:06.173Z,101411.00
2022-08-22T14:28:45.945Z,101414.63
2022-08-22T14:31:25.562Z,101414.25
2022-08-22T14:34:02.452Z,101411.41
2022-08-22T14:36:51.671Z,101417.84
2022-08-22T14:39:31.299Z,101414.19
2022-08-22T14:42:13.942Z,101417.94
2022-08-22T14:45:02.182Z,101420.06
2022-08-22T14:47:55.492Z,101416.69
2022-08-22T14:50:43.762Z,101419.53
2022-08-22T14:53:26.670Z,101421.25
2022-08-22T14:56:03.729Z,101417.28
2022-08-22T14:58:38.294Z,101415.59
2022-08-22T15:01:15.280Z,101417.09
2022-08-22T15:03:53.109Z,101423.47
2022-08-22T15:06:37.117Z,101419.91
2022-08-22T15:09:16.500Z,101413.91
2022-08-22T15:11:50.839Z,101417.06
2022-08-22T15:14:26.960Z,101422.22
2022-08-22T15:16:59.858Z,101415.34
2022-08-22T15:19:41.052Z,101424.41
2022-08-22T15:22:18.507Z,101413.31
2022-08-22T15:24:58.497Z,101410.69
2022-08-22T15:27:30.398Z,101413.41
2022-08-22T15:30:03.867Z,101410.63
2022-08-22T15:32:42.044Z,101410.69
2022-08-22T15:35:16.199Z,101414.47
2022-08-22T15:38:01.563Z,101416.53
2022-08-22T15:40:41.979Z,101410.03
2022-08-22T15:43:23.787Z,101415.53
2022-08-22T15:46:17.879Z,101414.06
2022-08-22T15:49:00.844Z,101407.53
2022-08-22T15:51:43.129Z,101411.28
2022-08-22T15:54:24.761Z,101418.34
2022-08-22T15:57:20.685Z,101408.66
2022-08-22T15:59:59.009Z,101403.53
2022-08-22T16:02:35.243Z,101406.53
2022-08-22T16:05:24.197Z,101395.09
2022-08-22T16:08:05.560Z,101395.84
2022-08-22T16:10:41.927Z,101402.13
2022-08-22T16:13:34.019Z,101396.53
2022-08-22T16:16:08.536Z,101391.44
2022-08-22T16:19:16.200Z,101395.81
2022-08-22T16:22:14.760Z,101390.41
2022-08-22T16:25:10.984Z,101391.28
2022-08-22T16:27:58.957Z,101394.50
2022-08-22T16:30:37.908Z,101396.25
2022-08-22T16:33:17.755Z,101393.75
2022-08-22T16:36:25.600Z,101394.59
2022-08-22T16:38:58.814Z,101392.97
2022-08-22T16:41:36.009Z,101402.88
2022-08-22T16:44:40.787Z,101401.41
2022-08-22T16:47:16.341Z,101405.94
2022-08-22T16:50:02.299Z,101402.56
2022-08-22T16:52:59.006Z,101405.97
2022-08-22T16:55:48.459Z,101405.19
2022-08-22T16:59:23.498Z,101401.81
2022-08-22T17:02:20.059Z,101400.84
2022-08-22T17:05:03.900Z,101405.34
2022-08-22T17:07:49.548Z,101396.75
2022-08-22T17:10:40.427Z,101403.22
2022-08-22T17:13:26.568Z,101402.22
2022-08-22T17:16:13.766Z,101389.63
2022-08-22T17:19:12.588Z,101401.75
2022-08-22T17:21:53.737Z,101399.88
2022-08-22T17:24:33.975Z,101406.16
2022-08-22T17:27:13.507Z,101400.94
2022-08-22T17:29:55.689Z,101408.28
2022-08-22T17:32:43.339Z,101402.97
2022-08-22T17:35:26.569Z,101411.88
2022-08-22T17:38:09.841Z,101422.00
2022-08-22T17:40:53.478Z,101414.91
2022-08-22T17:43:50.504Z,101415.78
2022-08-22T17:46:34.610Z,101418.44
2022-08-22T17:49:16.857Z,101414.28
2022-08-22T17:51:55.738Z,101424.75
2022-08-22T17:54:35.381Z,101421.56
2022-08-22T17:57:14.408Z,101423.50
2022-08-22T17:59:52.492Z,101424.59
2022-08-22T18:02:29.689Z,101427.28
2022-08-22T18:05:08.659Z,101432.69
2022-08-22T18:07:53.953Z,101428.66
2022-08-22T18:10:39.400Z,101432.28
2022-08-22T18:13:14.967Z,101435.97
2022-08-22T18:15:53.130Z,101438.31
2022-08-22T18:18:31.562Z,101441.00
2022-08-22T18:21:07.772Z,101441.38
2022-08-22T18:23:46.197Z,101439.88
2022-08-22T18:26:29.198Z,101447.34
2022-08-22T18:29:15.889Z,101449.63
2022-08-22T18:31:53.299Z,101444.25
2022-08-22T18:34:31.798Z,101450.09
2022-08-22T18:37:07.469Z,101450.34
2022-08-22T18:39:48.978Z,101462.06
2022-08-22T18:42:25.720Z,101459.66
2022-08-22T18:44:56.240Z,101469.97
2022-08-22T18:47:32.937Z,101466.97
2022-08-22T18:50:25.867Z,101465.13
2022-08-22T18:52:57.809Z,101463.19
2022-08-22T18:55:52.151Z,101472.06
2022-08-22T18:58:51.358Z,101473.88
2022-08-22T19:01:51.191Z,101477.44
2022-08-22T19:04:56.259Z,101474.06
2022-08-22T19:07:44.888Z,101474.34
2022-08-22T19:10:38.848Z,101476.13
2022-08-22T19:13:56.120Z,101479.88
2022-08-22T19:16:59.338Z,101477.19
2022-08-22T19:20:01.799Z,101470.22
2022-08-22T19:22:36.051Z,101471.81
2022-08-22T19:25:27.330Z,101465.56
2022-08-22T19:28:36.646Z,101463.47
2022-08-22T19:31:43.288Z,101457.47
2022-08-22T19:34:46.784Z,101466.53
2022-08-22T19:37:33.470Z,101452.09
2022-08-22T19:40:06.983Z,101460.03
2022-08-22T19:42:40.854Z,101455.88
2022-08-22T19:45:29.466Z,101470.44
2022-08-22T19:48:13.634Z,101469.06
2022-08-22T19:50:46.920Z,101473.44
2022-08-22T19:53:36.101Z,101480.78
2022-08-22T19:56:23.629Z,101479.09
2022-08-22T19:59:09.026Z,101482.66
2022-08-22T20:01:51.961Z,101479.91
2022-08-22T20:04:48.497Z,101477.22
2022-08-22T20:07:33.081Z,101473.72
2022-08-22T20:10:18.730Z,101480.22
2022-08-22T20:13:04.500Z,101476.22
2022-08-22T20:15:57.349Z,101471.22
2022-08-22T20:19:09.450Z,101466.81
2022-08-22T20:21:49.863Z,101469.78
2022-08-22T20:24:27.021Z,101461.50
2022-08-22T20:27:15.885Z,101470.78
2022-08-22T20:29:53.292Z,101466.72
2022-08-22T20:32:26.391Z,101461.56
2022-08-22T20:34:59.711Z,101460.28
2022-08-22T20:38:04.857Z,101460.03
2022-08-22T20:40:56.526Z,101446.81
2022-08-22T20:43:38.011Z,101445.03
2022-08-22T20:46:22.409Z,101448.38
2022-08-22T20:48:57.805Z,101437.59
2022-08-22T20:51:30.742Z,101439.56
2022-08-22T20:54:10.132Z,101447.03
2022-08-22T20:56:53.474Z,101446.69
2022-08-22T20:59:30.015Z,101438.72
2022-08-22T21:02:11.175Z,101438.38
2022-08-22T21:04:50.856Z,101442.75
2022-08-22T21:07:27.075Z,101437.06
2022-08-22T21:10:23.470Z,101444.22
2022-08-22T21:13:05.899Z,101441.41
2022-08-22T21:15:38.981Z,101434.16
2022-08-22T21:18:12.278Z,101436.25
2022-08-22T21:20:43.598Z,101434.41
2022-08-22T21:23:16.430Z,101436.09
2022-08-22T21:25:56.833Z,101441.47
2022-08-22T21:28:36.056Z,101435.06
2022-08-22T21:31:14.596Z,101437.69
2022-08-22T21:33:54.268Z,101431.47
2022-08-22T21:36:27.686Z,101430.56
2022-08-22T21:39:01.557Z,101431.09
2022-08-22T21:41:41.556Z,101425.63
2022-08-22T21:44:35.017Z,101429.91
2022-08-22T21:47:30.409Z,101425.31
2022-08-22T21:50:09.557Z,101418.22
2022-08-22T21:52:44.379Z,101418.91
2022-08-22T21:55:25.780Z,101430.63
2022-08-22T21:58:37.035Z,101426.00
2022-08-22T22:01:30.276Z,101416.78
2022-08-22T22:04:01.448Z,101422.25
2022-08-22T22:06:31.708Z,101412.34
2022-08-22T22:09:02.128Z,101409.63
2022-08-22T22:11:32.350Z,101413.03
2022-08-22T22:14:04.376Z,101417.56
2022-08-22T22:16:34.970Z,101416.63
2022-08-22T22:19:08.351Z,101415.63
2022-08-22T22:21:38.957Z,101409.78
2022-08-22T22:24:09.611Z,101404.59
2022-08-22T22:26:40.139Z,101406.47
2022-08-22T22:29:12.220Z,101414.38
2022-08-22T22:31:42.698Z,101400.13
2022-08-22T22:34:12.861Z,101401.00
2022-08-22T22:36:44.431Z,101397.34
2022-08-22T22:39:14.189Z,101402.34
2022-08-22T22:41:44.533Z,101397.81
2022-08-22T22:44:16.081Z,101395.28
2022-08-22T22:46:46.488Z,101390.00
2022-08-22T22:49:16.600Z,101391.00
2022-08-22T22:51:46.770Z,101392.94
2022-08-22T22:54:17.410Z,101392.13
2022-08-22T22:56:47.913Z,101388.63
2022-08-22T22:59:20.230Z,101380.66
2022-08-22T23:02:06.428Z,101389.56
2022-08-22T23:04:39.090Z,101378.97
2022-08-22T23:07:10.017Z,101372.97
2022-08-22T23:09:44.855Z,101372.19
2022-08-22T23:12:16.632Z,101368.88
2022-08-22T23:14:48.489Z,101361.47
2022-08-22T23:17:18.849Z,101365.53
2022-08-22T23:19:49.380Z,101370.22
2022-08-22T23:22:20.059Z,101360.44
2022-08-22T23:24:51.719Z,101361.22
2022-08-22T23:27:22.019Z,101360.56
2022-08-22T23:29:53.876Z,101358.91
2022-08-22T23:32:24.187Z,101355.41
2022-08-22T23:34:56.467Z,101357.56
2022-08-22T23:37:26.687Z,101356.59
2022-08-22T23:39:57.061Z,101358.38
2022-08-22T23:42:27.148Z,101364.03
2022-08-22T23:44:58.701Z,101349.63
2022-08-22T23:47:28.957Z,101362.25
2022-08-22T23:49:59.242Z,101371.09
2022-08-22T23:52:36.601Z,101375.75
2022-08-22T23:55:07.079Z,101382.47
2022-08-22T23:57:37.619Z,101373.72
